createdAt,value
2023-05-10T00:02:01.724Z,16.77
2023-05-10T00:04:28.316Z,17.30
2023-05-10T00:06:51.568Z,17.75
2023-05-10T00:09:14.855Z,19.40
2023-05-10T00:11:38.169Z,17.95
2023-05-10T00:14:02.769Z,18.17
2023-05-10T00:16:26.089Z,17.92
2023-05-10T00:18:49.358Z,18.58
2023-05-10T00:21:12.710Z,17.23
2023-05-10T00:23:36.054Z,16.63
2023-05-10T00:25:59.536Z,17.05
2023-05-10T00:28:22.812Z,17.08
2023-05-10T00:30:47.366Z,16.50
2023-05-10T00:33:10.669Z,16.35
2023-05-10T00:35:34.128Z,16.02
2023-05-10T00:37:57.355Z,17.02
2023-05-10T00:40:20.726Z,17.27
2023-05-10T00:42:48.519Z,15.98
2023-05-10T00:45:12.643Z,16.83
2023-05-10T00:47:37.680Z,18.13
2023-05-10T00:50:02.335Z,18.83
2023-05-10T00:52:26.965Z,18.58
2023-05-10T00:54:50.371Z,17.58
2023-05-10T00:57:13.800Z,19.08
2023-05-10T00:59:37.619Z,19.23
2023-05-10T01:02:00.906Z,20.92
2023-05-10T01:04:27.606Z,20.85
2023-05-10T01:06:50.870Z,20.42
2023-05-10T01:09:14.211Z,19.35
2023-05-10T01:11:38.005Z,19.50
2023-05-10T01:14:01.544Z,19.60
2023-05-10T01:16:25.154Z,18.88
2023-05-10T01:18:48.758Z,17.95
2023-05-10T01:21:23.346Z,16.80
2023-05-10T01:24:42.300Z,16.05
2023-05-10T01:27:53.046Z,15.50
2023-05-10T01:30:49.430Z,15.55
2023-05-10T01:33:20.604Z,15.00
2023-05-10T01:35:51.428Z,15.25
2023-05-10T01:38:21.348Z,15.48
2023-05-10T01:40:57.593Z,15.07
2023-05-10T01:43:28.848Z,15.70
2023-05-10T01:46:02.143Z,14.40
2023-05-10T01:48:31.182Z,16.20
2023-05-10T01:50:55.781Z,14.27
2023-05-10T01:53:22.152Z,13.88
2023-05-10T01:55:51.316Z,17.27
2023-05-10T01:58:19.476Z,15.60
2023-05-10T02:00:46.762Z,14.57
2023-05-10T02:03:12.866Z,16.85
2023-05-10T02:05:39.161Z,17.90
2023-05-10T02:08:04.033Z,18.00
2023-05-10T02:10:28.686Z,18.00
2023-05-10T02:12:53.250Z,18.70
2023-05-10T02:15:22.080Z,18.60
2023-05-10T02:17:46.662Z,19.27
2023-05-10T02:20:12.683Z,19.75
2023-05-10T02:22:39.086Z,20.23
2023-05-10T02:25:03.239Z,18.60
2023-05-10T02:27:28.039Z,17.70
2023-05-10T02:29:53.263Z,16.83
2023-05-10T02:32:18.745Z,15.57
2023-05-10T02:34:42.631Z,15.60
2023-05-10T02:37:06.952Z,15.63
2023-05-10T02:39:33.879Z,15.10
2023-05-10T02:41:59.043Z,13.07
2023-05-10T02:44:24.494Z,13.82
2023-05-10T02:46:48.901Z,15.57
2023-05-10T02:49:12.660Z,15.05
2023-05-10T02:51:43.283Z,15.77
2023-05-10T02:54:21.696Z,14.45
2023-05-10T02:56:52.915Z,15.55
2023-05-10T02:59:16.523Z,15.40
2023-05-10T03:01:40.112Z,15.57
2023-05-10T03:04:03.700Z,15.52
2023-05-10T03:06:27.490Z,15.27
2023-05-10T03:08:50.867Z,15.60
2023-05-10T03:11:34.650Z,14.75
2023-05-10T03:14:13.069Z,15.10
2023-05-10T03:16:44.919Z,16.00
2023-05-10T03:19:18.815Z,15.63
2023-05-10T03:21:47.400Z,16.23
2023-05-10T03:24:16.268Z,16.15
2023-05-10T03:26:42.396Z,16.58
2023-05-10T03:29:14.036Z,17.75
2023-05-10T03:31:37.817Z,16.77
2023-05-10T03:34:02.300Z,16.45
2023-05-10T03:36:25.521Z,16.17
2023-05-10T03:38:49.074Z,18.45
2023-05-10T03:41:12.816Z,16.67
2023-05-10T03:43:36.484Z,17.58
2023-05-10T03:46:03.982Z,18.42
2023-05-10T03:48:27.275Z,17.85
2023-05-10T03:50:50.909Z,16.88
2023-05-10T03:53:14.387Z,18.08
2023-05-10T03:55:37.761Z,19.92
2023-05-10T03:58:00.977Z,21.35
2023-05-10T04:00:24.406Z,19.88
2023-05-10T04:02:52.168Z,20.52
2023-05-10T04:05:17.018Z,21.17
2023-05-10T04:07:40.342Z,22.05
2023-05-10T04:10:03.873Z,23.00
2023-05-10T04:12:27.215Z,25.15
2023-05-10T04:14:50.600Z,24.60
2023-05-10T04:17:13.917Z,24.73
2023-05-10T04:19:39.285Z,26.05
2023-05-10T04:22:02.510Z,28.08
2023-05-10T04:24:26.226Z,25.67
2023-05-10T04:26:49.538Z,24.33
2023-05-10T04:29:12.787Z,26.95
2023-05-10T04:31:37.243Z,27.73
2023-05-10T04:34:00.642Z,27.75
2023-05-10T04:36:25.284Z,27.55
2023-05-10T04:38:48.531Z,28.90
2023-05-10T04:41:13.083Z,31.20
2023-05-10T04:43:37.514Z,30.00
2023-05-10T04:46:00.878Z,29.92
2023-05-10T04:48:24.167Z,31.92
2023-05-10T04:50:47.812Z,31.40
2023-05-10T04:53:14.015Z,30.02
2023-05-10T04:55:38.543Z,29.83
2023-05-10T04:58:01.927Z,29.17
2023-05-10T05:00:25.662Z,30.65
2023-05-10T05:02:49.041Z,30.67
2023-05-10T05:05:12.392Z,30.08
2023-05-10T05:07:35.791Z,33.00
2023-05-10T05:10:00.437Z,31.48
2023-05-10T05:12:23.663Z,31.38
2023-05-10T05:14:46.993Z,30.23
2023-05-10T05:17:10.242Z,30.77
2023-05-10T05:19:34.670Z,31.45
2023-05-10T05:21:57.959Z,29.90
2023-05-10T05:24:21.188Z,29.08
2023-05-10T05:26:45.800Z,32.53
2023-05-10T05:29:09.294Z,31.67
2023-05-10T05:31:32.833Z,33.22
2023-05-10T05:33:56.215Z,32.90
2023-05-10T05:36:19.499Z,33.75
2023-05-10T05:38:43.573Z,33.13
2023-05-10T05:41:07.234Z,33.22
2023-05-10T05:43:32.128Z,34.28
2023-05-10T05:45:55.606Z,33.20
2023-05-10T05:48:18.866Z,33.70
2023-05-10T05:50:42.169Z,33.78
2023-05-10T05:53:05.397Z,34.67
2023-05-10T05:55:28.677Z,35.08
2023-05-10T05:57:51.919Z,34.03
2023-05-10T06:00:17.959Z,33.53
2023-05-10T06:02:42.945Z,36.97
2023-05-10T06:05:07.613Z,33.60
2023-05-10T06:07:30.822Z,33.38
2023-05-10T06:09:54.092Z,35.17
2023-05-10T06:12:17.385Z,34.92
2023-05-10T06:14:40.626Z,35.22
2023-05-10T06:17:06.133Z,33.70
2023-05-10T06:19:29.402Z,34.58
2023-05-10T06:21:53.817Z,34.08
2023-05-10T06:24:17.293Z,33.15
2023-05-10T06:26:40.564Z,35.33
2023-05-10T06:29:03.812Z,33.75
2023-05-10T06:31:27.121Z,34.13
2023-05-10T06:33:51.808Z,35.72
2023-05-10T06:36:15.412Z,35.13
2023-05-10T06:38:38.804Z,33.70
2023-05-10T06:41:02.383Z,34.13
2023-05-10T06:43:25.860Z,35.17
2023-05-10T06:45:50.327Z,36.17
2023-05-10T06:48:13.632Z,35.63
2023-05-10T06:50:38.412Z,35.28
2023-05-10T06:53:02.647Z,34.38
2023-05-10T06:55:26.016Z,34.10
2023-05-10T06:57:49.431Z,33.88
2023-05-10T07:00:13.677Z,33.17
2023-05-10T07:02:37.027Z,35.53
2023-05-10T07:05:02.729Z,32.42
2023-05-10T07:07:28.136Z,34.08
2023-05-10T07:09:52.181Z,31.02
2023-05-10T07:12:16.171Z,32.22
2023-05-10T07:14:39.543Z,32.97
2023-05-10T07:17:02.783Z,32.42
2023-05-10T07:19:26.306Z,30.85
2023-05-10T07:21:49.537Z,30.08
2023-05-10T07:24:14.136Z,30.95
2023-05-10T07:26:37.481Z,30.83
2023-05-10T07:29:00.797Z,30.58
2023-05-10T07:31:24.099Z,30.35
2023-05-10T07:33:47.520Z,31.90
2023-05-10T07:36:10.902Z,31.20
2023-05-10T07:38:34.282Z,32.58
2023-05-10T07:40:58.913Z,32.50
2023-05-10T07:43:22.248Z,33.67
2023-05-10T07:45:45.606Z,34.38
2023-05-10T07:48:08.977Z,33.83
2023-05-10T07:50:32.366Z,35.53
2023-05-10T07:52:55.682Z,35.63
2023-05-10T07:55:22.051Z,37.08
2023-05-10T07:57:46.961Z,34.22
2023-05-10T08:00:13.959Z,34.63
2023-05-10T08:02:37.950Z,35.97
2023-05-10T08:05:01.304Z,34.75
2023-05-10T08:07:25.284Z,34.25
2023-05-10T08:09:48.589Z,34.67
2023-05-10T08:12:11.800Z,33.58
2023-05-10T08:14:37.560Z,34.88
2023-05-10T08:17:00.826Z,31.80
2023-05-10T08:19:24.877Z,33.60
2023-05-10T08:21:48.137Z,30.23
2023-05-10T08:24:11.523Z,29.67
2023-05-10T08:26:35.632Z,31.30
2023-05-10T08:28:58.906Z,30.73
2023-05-10T08:31:23.560Z,31.30
2023-05-10T08:33:47.107Z,30.92
2023-05-10T08:36:10.830Z,28.75
2023-05-10T08:38:34.154Z,30.20
2023-05-10T08:40:59.419Z,29.55
2023-05-10T08:43:23.183Z,27.73
2023-05-10T08:45:47.970Z,28.60
2023-05-10T08:48:13.457Z,30.17
2023-05-10T08:50:38.819Z,28.63
2023-05-10T08:53:06.722Z,29.08
2023-05-10T08:55:30.216Z,25.85
2023-05-10T08:57:53.704Z,25.00
2023-05-10T09:00:17.952Z,26.27
2023-05-10T09:02:41.556Z,25.30
2023-05-10T09:05:07.714Z,22.60
2023-05-10T09:07:31.041Z,20.65
2023-05-10T09:09:55.768Z,21.27
2023-05-10T09:12:18.989Z,22.27
2023-05-10T09:14:42.384Z,21.63
2023-05-10T09:17:06.615Z,20.70
2023-05-10T09:19:30.671Z,19.70
2023-05-10T09:21:56.750Z,17.98
2023-05-10T09:24:19.978Z,20.02
2023-05-10T09:26:49.809Z,18.67
2023-05-10T09:29:15.153Z,19.60
2023-05-10T09:31:52.461Z,20.02
2023-05-10T09:34:19.977Z,19.58
2023-05-10T09:36:58.497Z,18.70
2023-05-10T09:39:22.401Z,19.83
2023-05-10T09:41:46.205Z,20.02
2023-05-10T09:44:10.090Z,20.95
2023-05-10T09:46:37.988Z,20.88
2023-05-10T09:49:01.397Z,21.77
2023-05-10T09:51:25.817Z,23.23
2023-05-10T09:53:51.721Z,22.98
2023-05-10T09:56:15.297Z,21.25
2023-05-10T09:58:40.051Z,21.77
2023-05-10T10:01:03.670Z,20.50
2023-05-10T10:03:29.710Z,21.98
2023-05-10T10:05:54.329Z,20.35
2023-05-10T10:08:19.471Z,20.20
2023-05-10T10:10:46.441Z,21.52
2023-05-10T10:13:10.439Z,19.95
2023-05-10T10:15:35.887Z,20.42
2023-05-10T10:17:59.345Z,19.75
2023-05-10T10:20:26.103Z,18.35
2023-05-10T10:22:50.301Z,17.20
2023-05-10T10:25:16.863Z,16.60
2023-05-10T10:27:51.475Z,17.92
2023-05-10T10:30:24.635Z,15.48
2023-05-10T10:33:24.306Z,15.77
2023-05-10T10:35:52.977Z,15.05
2023-05-10T10:38:16.407Z,15.98
2023-05-10T10:40:39.648Z,15.90
2023-05-10T10:43:26.548Z,15.75
2023-05-10T10:46:14.338Z,14.73
2023-05-10T10:48:38.561Z,15.85
2023-05-10T10:51:02.398Z,15.65
2023-05-10T10:53:29.678Z,15.18
2023-05-10T10:56:08.969Z,16.90
2023-05-10T10:58:34.734Z,17.13
2023-05-10T11:01:13.739Z,15.70
2023-05-10T11:03:37.065Z,17.48
2023-05-10T11:06:02.568Z,18.25
2023-05-10T11:08:30.438Z,16.38
2023-05-10T11:11:11.641Z,16.20
2023-05-10T11:13:40.957Z,16.90
2023-05-10T11:16:19.194Z,16.73
2023-05-10T11:18:43.137Z,14.85
2023-05-10T11:21:06.969Z,16.27
2023-05-10T11:23:34.833Z,16.58
2023-05-10T11:25:58.252Z,17.27
2023-05-10T11:28:21.543Z,16.13
2023-05-10T11:30:46.874Z,16.92
2023-05-10T11:33:16.618Z,17.55
2023-05-10T11:35:43.189Z,15.45
2023-05-10T11:38:09.204Z,14.90
2023-05-10T11:40:32.456Z,13.95
2023-05-10T11:42:58.621Z,13.60
2023-05-10T11:45:22.751Z,15.18
2023-05-10T11:47:51.024Z,15.10
2023-05-10T11:50:14.499Z,15.65
2023-05-10T11:52:39.113Z,14.95
2023-05-10T11:55:02.375Z,15.00
2023-05-10T11:57:29.669Z,15.13
2023-05-10T11:59:56.370Z,16.30
2023-05-10T12:02:19.794Z,16.30
2023-05-10T12:04:45.072Z,16.05
2023-05-10T12:07:08.532Z,14.88
2023-05-10T12:09:43.120Z,16.42
2023-05-10T12:12:07.875Z,17.05
2023-05-10T12:14:34.323Z,15.48
2023-05-10T12:16:59.830Z,14.00
2023-05-10T12:19:23.146Z,14.40
2023-05-10T12:21:47.768Z,14.80
2023-05-10T12:24:11.525Z,15.10
2023-05-10T12:26:35.440Z,14.00
2023-05-10T12:29:16.612Z,13.70
2023-05-10T12:31:53.074Z,11.73
2023-05-10T12:34:26.796Z,11.35
2023-05-10T12:36:54.780Z,11.07
2023-05-10T12:39:17.982Z,12.13
2023-05-10T12:41:43.445Z,10.75
2023-05-10T12:44:07.015Z,12.55
2023-05-10T12:46:30.503Z,13.73
2023-05-10T12:49:08.042Z,13.20
2023-05-10T12:51:32.512Z,12.40
2023-05-10T12:53:57.137Z,11.63
2023-05-10T12:56:21.086Z,12.35
2023-05-10T12:58:49.112Z,13.88
2023-05-10T13:01:12.634Z,13.68
2023-05-10T13:03:35.950Z,13.18
2023-05-10T13:05:59.283Z,13.43
2023-05-10T13:08:22.565Z,13.60
2023-05-10T13:10:47.186Z,13.43
2023-05-10T13:13:10.769Z,13.27
2023-05-10T13:15:34.044Z,12.52
2023-05-10T13:17:57.460Z,13.68
2023-05-10T13:20:20.979Z,13.38
2023-05-10T13:22:45.360Z,13.43
2023-05-10T13:25:09.521Z,13.30
2023-05-10T13:27:34.413Z,13.77
2023-05-10T13:29:57.648Z,14.70
2023-05-10T13:32:21.303Z,16.38
2023-05-10T13:34:44.660Z,17.58
2023-05-10T13:37:07.928Z,17.58
2023-05-10T13:39:34.277Z,18.70
2023-05-10T13:41:57.475Z,20.20
2023-05-10T13:44:23.154Z,18.13
2023-05-10T13:46:46.527Z,21.60
2023-05-10T13:49:10.653Z,19.58
2023-05-10T13:51:33.915Z,21.38
2023-05-10T13:53:57.262Z,19.27
2023-05-10T13:56:20.493Z,20.13
2023-05-10T13:58:43.815Z,19.90
2023-05-10T14:01:08.710Z,19.67
2023-05-10T14:03:32.228Z,19.95
2023-05-10T14:05:55.571Z,18.90
2023-05-10T14:08:18.962Z,20.13
2023-05-10T14:10:42.246Z,20.02
2023-05-10T14:13:05.591Z,19.88
2023-05-10T14:15:29.161Z,18.10
2023-05-10T14:17:53.873Z,19.23
2023-05-10T14:20:17.376Z,19.02
2023-05-10T14:22:41.515Z,19.70
2023-05-10T14:25:05.414Z,18.30
2023-05-10T14:27:28.835Z,17.92
2023-05-10T14:29:52.107Z,17.27
2023-05-10T14:32:15.456Z,17.48
2023-05-10T14:34:40.158Z,16.92
2023-05-10T14:37:03.393Z,16.77
2023-05-10T14:39:26.782Z,17.27
2023-05-10T14:41:49.961Z,14.40
2023-05-10T14:44:13.354Z,13.93
2023-05-10T14:46:36.587Z,13.25
2023-05-10T14:49:00.553Z,13.52
2023-05-10T14:51:25.403Z,12.85
2023-05-10T14:53:49.217Z,13.10
2023-05-10T14:56:12.499Z,14.63
2023-05-10T14:58:35.865Z,14.75
2023-05-10T15:00:59.306Z,15.02
2023-05-10T15:03:23.355Z,14.25
2023-05-10T15:05:47.694Z,14.57
2023-05-10T15:08:13.521Z,14.88
2023-05-10T15:10:37.706Z,15.15
2023-05-10T15:13:01.534Z,14.85
2023-05-10T15:15:25.036Z,13.98
2023-05-10T15:17:49.792Z,14.82
2023-05-10T15:20:13.898Z,14.13
2023-05-10T15:22:37.379Z,12.15
2023-05-10T15:25:02.897Z,10.98
2023-05-10T15:27:26.089Z,8.55
2023-05-10T15:29:49.353Z,9.45
2023-05-10T15:32:12.598Z,10.80
2023-05-10T15:34:37.155Z,7.88
2023-05-10T15:37:00.549Z,6.95
2023-05-10T15:39:23.850Z,7.20
2023-05-10T15:41:49.801Z,8.38
2023-05-10T15:44:13.056Z,7.10
2023-05-10T15:46:36.430Z,7.60
2023-05-10T15:49:00.254Z,7.70
2023-05-10T15:51:23.563Z,7.18
2023-05-10T15:53:56.829Z,6.82
2023-05-10T15:56:24.127Z,6.78
2023-05-10T15:58:49.035Z,7.10
2023-05-10T16:01:13.070Z,6.13
2023-05-10T16:03:37.570Z,5.88
2023-05-10T16:06:01.231Z,5.88
2023-05-10T16:08:24.622Z,6.25
2023-05-10T16:10:47.890Z,5.43
2023-05-10T16:13:11.297Z,5.30
2023-05-10T16:15:35.938Z,5.40
2023-05-10T16:17:59.506Z,5.13
2023-05-10T16:20:22.911Z,4.93
2023-05-10T16:22:46.173Z,4.72
2023-05-10T16:25:12.657Z,4.63
2023-05-10T16:27:37.095Z,4.53
2023-05-10T16:30:00.418Z,4.78
2023-05-10T16:32:25.119Z,4.32
2023-05-10T16:34:50.150Z,5.00
2023-05-10T16:37:13.394Z,4.90
2023-05-10T16:39:36.637Z,4.95
2023-05-10T16:41:59.877Z,4.57
2023-05-10T16:44:25.754Z,5.22
2023-05-10T16:46:49.305Z,4.72
2023-05-10T16:49:14.023Z,4.85
2023-05-10T16:51:37.328Z,4.72
2023-05-10T16:54:00.566Z,4.60
2023-05-10T16:56:24.446Z,4.72
2023-05-10T16:58:49.842Z,4.70
2023-05-10T17:01:13.156Z,4.80
2023-05-10T17:03:36.853Z,4.90
2023-05-10T17:06:01.707Z,4.25
2023-05-10T17:08:24.957Z,4.50
2023-05-10T17:10:48.236Z,4.57
2023-05-10T17:13:11.810Z,4.40
2023-05-10T17:15:37.335Z,4.55
2023-05-10T17:18:00.784Z,4.15
2023-05-10T17:20:24.185Z,4.97
2023-05-10T17:22:49.582Z,5.35
2023-05-10T17:25:12.901Z,5.18
2023-05-10T17:27:36.597Z,5.32
2023-05-10T17:30:00.116Z,5.65
2023-05-10T17:32:23.582Z,6.68
2023-05-10T17:34:47.443Z,6.38
2023-05-10T17:37:10.816Z,7.40
2023-05-10T17:39:36.759Z,7.05
2023-05-10T17:42:00.850Z,8.93
2023-05-10T17:44:25.444Z,9.32
2023-05-10T17:46:48.731Z,10.25
2023-05-10T17:49:12.027Z,10.20
2023-05-10T17:51:35.392Z,12.65
2023-05-10T17:53:58.945Z,13.45
2023-05-10T17:56:24.436Z,13.30
2023-05-10T17:58:47.710Z,12.70
2023-05-10T18:01:11.112Z,12.95
2023-05-10T18:03:35.884Z,12.90
2023-05-10T18:05:59.386Z,13.23
2023-05-10T18:08:26.768Z,12.65
2023-05-10T18:10:50.280Z,11.35
2023-05-10T18:13:14.901Z,11.23
2023-05-10T18:15:38.507Z,10.95
2023-05-10T18:18:04.172Z,11.05
2023-05-10T18:20:27.560Z,10.95
2023-05-10T18:22:51.018Z,10.40
2023-05-10T18:25:14.564Z,10.32
2023-05-10T18:27:38.136Z,9.73
2023-05-10T18:30:03.141Z,9.73
2023-05-10T18:32:26.525Z,9.48
2023-05-10T18:34:49.788Z,9.07
2023-05-10T18:37:13.561Z,8.57
2023-05-10T18:39:37.905Z,9.00
2023-05-10T18:42:01.375Z,9.18
2023-05-10T18:44:26.441Z,9.73
2023-05-10T18:46:54.089Z,11.25
2023-05-10T18:49:17.441Z,9.88
2023-05-10T18:51:41.232Z,8.80
2023-05-10T18:54:04.681Z,8.52
2023-05-10T18:56:27.902Z,11.02
2023-05-10T18:58:51.376Z,10.43
2023-05-10T19:01:14.614Z,10.25
2023-05-10T19:03:39.323Z,11.68
2023-05-10T19:06:02.560Z,12.70
2023-05-10T19:08:25.858Z,12.73
2023-05-10T19:10:49.117Z,13.30
2023-05-10T19:13:12.770Z,13.00
2023-05-10T19:15:36.260Z,12.65
2023-05-10T19:17:59.709Z,12.30
2023-05-10T19:20:25.164Z,12.98
2023-05-10T19:23:02.250Z,13.40
2023-05-10T19:25:33.610Z,12.10
2023-05-10T19:27:57.997Z,12.65
2023-05-10T19:30:21.448Z,12.98
2023-05-10T19:32:45.020Z,13.95
2023-05-10T19:35:09.443Z,15.15
2023-05-10T19:37:34.010Z,16.60
2023-05-10T19:39:57.348Z,15.90
2023-05-10T19:42:21.695Z,15.70
2023-05-10T19:44:45.095Z,14.68
2023-05-10T19:47:09.127Z,14.55
2023-05-10T19:49:32.550Z,14.13
2023-05-10T19:51:55.919Z,13.85
2023-05-10T19:54:20.628Z,36.83
2023-05-10T19:56:43.917Z,26.55
2023-05-10T19:59:07.847Z,23.75
2023-05-10T20:01:32.783Z,22.30
2023-05-10T20:03:56.912Z,20.67
2023-05-10T20:06:20.261Z,18.02
2023-05-10T20:08:43.743Z,17.45
2023-05-10T20:11:08.417Z,16.13
2023-05-10T20:13:31.880Z,14.68
2023-05-10T20:15:57.572Z,13.88
2023-05-10T20:18:20.938Z,14.18
2023-05-10T20:20:44.335Z,13.38
2023-05-10T20:23:07.618Z,13.43
2023-05-10T20:25:31.288Z,13.82
2023-05-10T20:27:55.954Z,14.70
2023-05-10T20:30:19.944Z,14.15
2023-05-10T20:32:43.717Z,13.73
2023-05-10T20:35:08.176Z,15.55
2023-05-10T20:37:31.497Z,13.02
2023-05-10T20:39:55.052Z,14.63
2023-05-10T20:42:18.403Z,13.65
2023-05-10T20:44:43.346Z,13.32
2023-05-10T20:47:07.023Z,13.18
2023-05-10T20:49:30.451Z,13.65
2023-05-10T20:51:53.791Z,13.52
2023-05-10T20:54:17.015Z,14.55
2023-05-10T20:56:40.325Z,14.45
2023-05-10T20:59:03.585Z,14.38
2023-05-10T21:01:28.450Z,13.98
2023-05-10T21:03:51.676Z,14.18
2023-05-10T21:06:15.034Z,14.52
2023-05-10T21:08:38.342Z,13.60
2023-05-10T21:11:05.655Z,14.25
2023-05-10T21:13:28.987Z,15.57
2023-05-10T21:15:52.314Z,14.90
2023-05-10T21:18:17.093Z,14.43
2023-05-10T21:20:40.568Z,14.60
2023-05-10T21:23:03.837Z,16.05
2023-05-10T21:25:27.251Z,15.55
2023-05-10T21:27:50.737Z,15.52
2023-05-10T21:30:15.100Z,15.05
2023-05-10T21:32:38.461Z,19.52
2023-05-10T21:35:04.265Z,17.55
2023-05-10T21:37:27.593Z,18.02
2023-05-10T21:39:52.790Z,15.60
2023-05-10T21:42:16.079Z,15.60
2023-05-10T21:44:39.704Z,15.10
2023-05-10T21:47:03.071Z,16.85
2023-05-10T21:49:26.315Z,16.27
2023-05-10T21:51:50.983Z,15.85
2023-05-10T21:54:14.268Z,17.13
2023-05-10T21:56:37.601Z,17.27
2023-05-10T21:59:01.325Z,19.75
2023-05-10T22:01:24.798Z,17.55
2023-05-10T22:03:48.148Z,18.40
2023-05-10T22:06:11.399Z,21.48
2023-05-10T22:08:36.075Z,20.98
2023-05-10T22:10:59.315Z,20.33
2023-05-10T22:13:22.554Z,20.95
2023-05-10T22:15:45.919Z,20.27
2023-05-10T22:18:09.241Z,19.92
2023-05-10T22:20:32.579Z,21.83
2023-05-10T22:22:56.481Z,22.05
2023-05-10T22:25:21.348Z,21.70
2023-05-10T22:27:44.686Z,22.60
2023-05-10T22:30:09.954Z,22.17
2023-05-10T22:32:34.075Z,22.70
2023-05-10T22:34:57.405Z,21.48
2023-05-10T22:37:20.644Z,18.63
2023-05-10T22:39:43.921Z,19.83
2023-05-10T22:42:08.531Z,22.30
2023-05-10T22:44:31.740Z,21.95
2023-05-10T22:46:55.094Z,22.75
2023-05-10T22:49:18.440Z,22.90
2023-05-10T22:51:42.030Z,22.85
2023-05-10T22:54:07.047Z,23.30
2023-05-10T22:56:30.330Z,23.48
2023-05-10T22:58:55.076Z,24.33
2023-05-10T23:01:18.353Z,23.08
2023-05-10T23:03:42.111Z,23.40
2023-05-10T23:06:06.569Z,22.23
2023-05-10T23:08:29.820Z,21.15
2023-05-10T23:10:53.092Z,22.55
2023-05-10T23:13:16.386Z,21.80
2023-05-10T23:15:41.164Z,21.60
2023-05-10T23:18:05.833Z,20.88
2023-05-10T23:20:29.778Z,21.63
2023-05-10T23:22:53.142Z,22.10
2023-05-10T23:25:17.189Z,23.15
2023-05-10T23:27:40.490Z,23.70
2023-05-10T23:30:04.383Z,22.83
2023-05-10T23:32:28.970Z,21.35
2023-05-10T23:34:52.333Z,22.20
2023-05-10T23:37:15.645Z,19.65
2023-05-10T23:39:38.880Z,21.65
2023-05-10T23:42:03.273Z,20.52
2023-05-10T23:44:26.546Z,23.45
2023-05-10T23:46:49.956Z,25.33
2023-05-10T23:49:14.967Z,24.23
2023-05-10T23:51:38.441Z,24.95
2023-05-10T23:54:02.064Z,25.85
2023-05-10T23:56:25.381Z,23.33
2023-05-10T23:58:48.664Z,22.10
